Terminal Aerodrome Forecast
Issued by NWS

Current Version | Previous Version | Text Only | Print | Product List | Glossary On
Versions: 1 2 3 4 5 6 7 8 9 10 11 12 13
490
FTUS42 KGSP 281742
TAFAND
TAF
KAND 281742Z 2818/2918 25013KT P6SM VCTS BKN045CB
      TEMPO 2818/2820 VRB10G25KT 3SM TSRA BKN035CB BKN100
     FM290000 25012G19KT P6SM VCSH BKN030
     FM290300 23007KT P6SM BKN040 PROB30 2903/2906 4SM -TSRA
      OVC025CB
     FM291400 31007KT P6SM SCT060
     FM291700 35008KT P6SM SCT070=

USA.gov is the U.S. government's official web portal to all federal, state and local government web resources and services.